Weather at Angelina County Airport

Public forecast

Using degrees Fahrenheit for public forecast. Weather courtesy of forecast.io.

Current aviation weather report (METAR) for Angelina County Airport

2024/06/16 21:53 (retrieved 8 minutes ago)

KLFK 162153Z AUTO 12009G17KT 10SM FEW055 33/21 A2985 RMK AO2 SLP104 T03330211

Aviation forecast (TAF) for Angelina County Airport

Forecast is more than 6 hours old.

2024/06/16 12:42 (retrieved 9 hours ago)

TAF KLFK 161139Z 1612/1712 08003KT P6SM SKC FM161500 15007KT P6SM SCT050 FM170300 13006KT P6SM SKC FM170900 14006KT P6SM OVC015